createdAt,value
2018-10-15T00:01:31.812Z,4.45
2018-10-15T00:04:00.038Z,4.03
2018-10-15T00:06:28.335Z,4.40
2018-10-15T00:08:56.596Z,4.07
2018-10-15T00:11:24.971Z,5.30
2018-10-15T00:13:53.098Z,4.65
2018-10-15T00:16:21.289Z,5.10
2018-10-15T00:18:49.458Z,5.33
2018-10-15T00:21:17.643Z,4.00
2018-10-15T00:23:45.795Z,4.27
2018-10-15T00:26:14.090Z,5.03
2018-10-15T00:28:42.239Z,4.37
2018-10-15T00:31:10.518Z,4.40
2018-10-15T00:33:38.789Z,4.17
2018-10-15T00:36:07.021Z,4.00
2018-10-15T00:38:35.164Z,4.10
2018-10-15T00:41:03.532Z,4.60
2018-10-15T00:43:31.692Z,4.50
2018-10-15T00:46:00.077Z,4.60
2018-10-15T00:48:28.286Z,4.62
2018-10-15T00:50:56.425Z,3.73
2018-10-15T00:53:24.636Z,5.07
2018-10-15T00:55:52.812Z,4.40
2018-10-15T00:58:20.952Z,4.83
2018-10-15T01:00:49.092Z,4.10
2018-10-15T01:03:17.326Z,4.63
2018-10-15T01:05:45.639Z,5.33
2018-10-15T01:08:13.932Z,5.85
2018-10-15T01:10:42.056Z,4.93
2018-10-15T01:13:10.189Z,5.10
2018-10-15T01:15:38.433Z,5.47
2018-10-15T01:18:06.707Z,5.67
2018-10-15T01:20:34.935Z,5.13
2018-10-15T01:23:03.188Z,4.50
2018-10-15T01:25:31.510Z,5.40
2018-10-15T01:27:59.691Z,6.03
2018-10-15T01:30:27.840Z,5.87
2018-10-15T01:32:56.091Z,5.17
2018-10-15T01:35:24.224Z,5.80
2018-10-15T01:37:52.384Z,5.20
2018-10-15T01:40:20.548Z,4.40
2018-10-15T01:42:48.774Z,4.20
2018-10-15T01:45:16.943Z,5.27
2018-10-15T01:47:45.099Z,4.50
2018-10-15T01:50:13.472Z,5.47
2018-10-15T01:52:41.651Z,5.23
2018-10-15T01:55:09.901Z,5.03
2018-10-15T01:57:38.200Z,4.63
2018-10-15T02:00:07.334Z,5.43
2018-10-15T02:02:35.570Z,5.10
2018-10-15T02:05:03.769Z,5.00
2018-10-15T02:07:31.891Z,4.90
2018-10-15T02:10:00.053Z,6.03
2018-10-15T02:12:28.285Z,4.13
2018-10-15T02:14:56.398Z,3.53
2018-10-15T02:17:24.539Z,3.50
2018-10-15T02:19:52.735Z,5.20
2018-10-15T02:22:20.881Z,4.67
2018-10-15T02:24:49.027Z,4.50
2018-10-15T02:27:17.313Z,4.80
2018-10-15T02:29:45.501Z,4.55
2018-10-15T02:32:13.664Z,5.10
2018-10-15T02:34:42.176Z,4.58
2018-10-15T02:37:11.156Z,5.25
2018-10-15T02:39:39.292Z,4.40
2018-10-15T02:42:07.466Z,5.20
2018-10-15T02:44:35.623Z,4.43
2018-10-15T02:47:03.955Z,5.07
2018-10-15T02:49:32.091Z,4.10
2018-10-15T02:52:00.336Z,4.57
2018-10-15T02:54:28.633Z,3.93
2018-10-15T02:56:57.125Z,5.70
2018-10-15T02:59:25.272Z,4.60
2018-10-15T03:01:53.395Z,4.60
2018-10-15T03:04:21.647Z,4.60
2018-10-15T03:06:49.870Z,5.80
2018-10-15T03:09:18.215Z,6.23
2018-10-15T03:11:46.507Z,5.63
2018-10-15T03:14:14.692Z,5.93
2018-10-15T03:16:42.848Z,7.10
2018-10-15T03:19:11.039Z,6.97
2018-10-15T03:21:39.324Z,5.00
2018-10-15T03:24:07.505Z,6.30
2018-10-15T03:26:35.721Z,5.00
2018-10-15T03:29:04.047Z,5.97
2018-10-15T03:31:32.226Z,6.40
2018-10-15T03:34:00.404Z,5.03
2018-10-15T03:36:28.554Z,6.33
2018-10-15T03:38:56.844Z,4.67
2018-10-15T03:41:25.056Z,3.75
2018-10-15T03:43:53.442Z,4.73
2018-10-15T03:46:21.658Z,4.83
2018-10-15T03:48:49.895Z,4.93
2018-10-15T03:51:18.123Z,4.77
2018-10-15T03:53:46.515Z,5.60
2018-10-15T03:56:14.752Z,4.47
2018-10-15T03:58:42.956Z,5.10
2018-10-15T04:01:11.249Z,5.40
2018-10-15T04:03:39.423Z,4.80
2018-10-15T04:06:07.587Z,4.50
2018-10-15T04:08:36.142Z,4.17
2018-10-15T04:11:04.276Z,5.97
2018-10-15T04:13:32.491Z,5.90
2018-10-15T04:16:00.749Z,4.23
2018-10-15T04:18:28.883Z,5.33
2018-10-15T04:20:57.014Z,4.87
2018-10-15T04:23:25.219Z,4.90
2018-10-15T04:25:53.395Z,4.43
2018-10-15T04:28:21.632Z,4.77
2018-10-15T04:30:49.789Z,4.87
2018-10-15T04:33:17.931Z,5.77
2018-10-15T04:35:46.078Z,5.97
2018-10-15T04:38:14.323Z,5.67
2018-10-15T04:40:42.712Z,4.73
2018-10-15T04:43:10.925Z,6.00
2018-10-15T04:45:39.184Z,5.47
2018-10-15T04:48:07.547Z,7.33
2018-10-15T04:50:35.667Z,5.60
2018-10-15T04:53:03.919Z,6.70
2018-10-15T04:55:32.116Z,5.97
2018-10-15T04:58:00.431Z,5.90
2018-10-15T05:00:28.685Z,5.47
2018-10-15T05:02:56.707Z,6.35
2018-10-15T05:05:24.993Z,8.10
2018-10-15T05:07:53.203Z,7.47
2018-10-15T05:10:21.396Z,6.53
2018-10-15T05:12:49.523Z,6.70
2018-10-15T05:15:17.675Z,7.97
2018-10-15T05:17:45.847Z,7.90
2018-10-15T05:20:14.063Z,6.67
2018-10-15T05:22:42.276Z,6.13
2018-10-15T05:25:10.516Z,5.60
2018-10-15T05:27:38.668Z,4.90
2018-10-15T05:30:07.727Z,5.72
2018-10-15T05:32:35.999Z,6.20
2018-10-15T05:35:05.063Z,6.50
2018-10-15T05:37:33.268Z,7.35
2018-10-15T05:40:01.423Z,4.92
2018-10-15T05:42:29.657Z,6.33
2018-10-15T05:44:57.841Z,5.27
2018-10-15T05:47:25.983Z,5.77
2018-10-15T05:49:54.140Z,5.37
2018-10-15T05:52:22.308Z,5.03
2018-10-15T05:54:50.564Z,6.00
2018-10-15T05:57:19.339Z,6.58
2018-10-15T05:59:47.532Z,6.47
2018-10-15T06:02:15.676Z,5.43
2018-10-15T06:04:43.864Z,5.10
2018-10-15T06:07:12.083Z,6.87
2018-10-15T06:09:40.291Z,6.00
2018-10-15T06:12:08.621Z,6.07
2018-10-15T06:14:36.767Z,6.50
2018-10-15T06:17:05.155Z,5.90
2018-10-15T06:19:33.304Z,6.93
2018-10-15T06:22:01.573Z,5.80
2018-10-15T06:24:29.848Z,6.83
2018-10-15T06:26:58.097Z,6.63
2018-10-15T06:29:26.225Z,8.27
2018-10-15T06:31:54.476Z,7.93
2018-10-15T06:34:22.885Z,9.30
2018-10-15T06:36:51.297Z,10.00
2018-10-15T06:39:19.558Z,10.40
2018-10-15T06:41:47.587Z,7.83
2018-10-15T06:44:15.828Z,6.10
2018-10-15T06:46:43.948Z,7.10
2018-10-15T06:49:12.125Z,7.20
2018-10-15T06:51:40.311Z,7.60
2018-10-15T06:54:08.497Z,7.23
2018-10-15T06:56:36.711Z,7.70
2018-10-15T06:59:04.899Z,6.70
2018-10-15T07:01:33.126Z,6.65
2018-10-15T07:04:01.315Z,7.30
2018-10-15T07:06:29.743Z,6.80
2018-10-15T07:09:07.571Z,8.17
2018-10-15T07:11:35.642Z,7.65
2018-10-15T07:14:04.040Z,6.70
2018-10-15T07:16:32.104Z,6.40
2018-10-15T07:19:00.567Z,7.40
2018-10-15T07:21:28.796Z,6.90
2018-10-15T07:23:57.027Z,5.70
2018-10-15T07:26:25.219Z,7.03
2018-10-15T07:28:53.653Z,6.17
2018-10-15T07:31:21.841Z,7.53
2018-10-15T07:33:50.124Z,6.60
2018-10-15T07:36:18.338Z,7.47
2018-10-15T07:38:46.472Z,5.70
2018-10-15T07:41:14.855Z,6.13
2018-10-15T07:43:43.040Z,7.07
2018-10-15T07:46:11.237Z,6.47
2018-10-15T07:48:39.606Z,7.10
2018-10-15T07:51:07.748Z,8.67
2018-10-15T07:53:35.947Z,8.37
2018-10-15T07:56:04.175Z,8.17
2018-10-15T07:58:32.294Z,8.33
2018-10-15T08:01:00.458Z,8.00
2018-10-15T08:03:28.580Z,9.15
2018-10-15T08:05:56.731Z,9.70
2018-10-15T08:08:25.010Z,7.07
2018-10-15T08:10:53.088Z,8.00
2018-10-15T08:13:21.256Z,10.07
2018-10-15T08:15:49.439Z,7.60
2018-10-15T08:18:17.564Z,8.27
2018-10-15T08:20:45.830Z,8.80
2018-10-15T08:23:13.894Z,7.57
2018-10-15T08:25:42.094Z,8.23
2018-10-15T08:28:10.353Z,8.33
2018-10-15T08:30:38.451Z,7.70
2018-10-15T08:33:06.757Z,7.07
2018-10-15T08:35:35.224Z,7.37
2018-10-15T08:38:03.651Z,7.33
2018-10-15T08:40:32.264Z,6.77
2018-10-15T08:43:00.755Z,6.30
2018-10-15T08:45:29.015Z,6.80
2018-10-15T08:47:57.195Z,6.53
2018-10-15T08:50:26.067Z,5.55
2018-10-15T08:52:54.229Z,6.50
2018-10-15T08:55:22.376Z,5.17
2018-10-15T08:57:50.918Z,4.90
2018-10-15T09:00:20.969Z,4.87
2018-10-15T09:02:49.546Z,5.12
2018-10-15T09:05:18.047Z,4.40
2018-10-15T09:07:47.094Z,4.90
2018-10-15T09:10:16.250Z,4.33
2018-10-15T09:12:44.684Z,5.60
2018-10-15T09:15:16.265Z,4.90
2018-10-15T09:17:44.470Z,4.73
2018-10-15T09:20:12.599Z,4.67
2018-10-15T09:22:41.992Z,4.23
2018-10-15T09:25:12.197Z,6.37
2018-10-15T09:27:40.456Z,5.13
2018-10-15T09:30:10.660Z,5.67
2018-10-15T09:32:39.238Z,3.60
2018-10-15T09:35:08.216Z,5.40
2018-10-15T09:37:36.551Z,5.07
2018-10-15T09:40:05.025Z,4.63
2018-10-15T09:42:33.160Z,5.70
2018-10-15T09:45:01.445Z,5.73
2018-10-15T09:47:29.816Z,3.73
2018-10-15T09:49:58.232Z,4.70
2018-10-15T09:52:26.368Z,6.93
2018-10-15T09:54:54.782Z,5.60
2018-10-15T09:57:23.545Z,6.80
2018-10-15T09:59:51.775Z,5.23
2018-10-15T10:02:19.996Z,5.20
2018-10-15T10:04:48.203Z,5.13
2018-10-15T10:07:16.413Z,5.07
2018-10-15T10:09:44.492Z,6.20
2018-10-15T10:12:12.744Z,4.83
2018-10-15T10:14:41.319Z,5.33
2018-10-15T10:17:09.514Z,3.90
2018-10-15T10:19:37.892Z,5.17
2018-10-15T10:22:06.228Z,5.50
2018-10-15T10:24:34.590Z,5.73
2018-10-15T10:27:02.927Z,6.40
2018-10-15T10:29:31.063Z,6.80
2018-10-15T10:31:59.406Z,5.23
2018-10-15T10:36:05.589Z,5.20
2018-10-15T10:38:38.480Z,5.60
2018-10-15T10:41:06.801Z,4.60
2018-10-15T10:43:35.140Z,4.80
2018-10-15T10:46:03.921Z,5.00
2018-10-15T10:48:32.398Z,4.60
2018-10-15T10:51:00.797Z,4.63
2018-10-15T10:53:29.542Z,5.40
2018-10-15T10:55:57.844Z,5.93
2018-10-15T10:58:26.381Z,6.07
2018-10-15T11:00:54.605Z,5.63
2018-10-15T11:03:23.037Z,4.73
2018-10-15T11:05:51.694Z,4.60
2018-10-15T11:08:20.521Z,5.20
2018-10-15T11:10:48.936Z,4.50
2018-10-15T11:13:17.339Z,4.97
2018-10-15T11:15:45.815Z,4.70
2018-10-15T11:18:14.118Z,5.00
2018-10-15T11:20:42.532Z,4.73
2018-10-15T11:23:10.968Z,4.83
2018-10-15T11:25:39.200Z,4.33
2018-10-15T11:28:07.392Z,5.70
2018-10-15T11:30:35.726Z,4.77
2018-10-15T11:33:03.992Z,4.40
2018-10-15T11:35:32.434Z,4.90
2018-10-15T11:38:00.889Z,5.40
2018-10-15T11:40:29.188Z,4.20
2018-10-15T11:42:57.725Z,5.40
2018-10-15T11:45:26.119Z,6.03
2018-10-15T11:47:54.244Z,4.27
2018-10-15T11:50:22.632Z,4.93
2018-10-15T11:52:51.102Z,4.37
2018-10-15T11:55:19.500Z,5.17
2018-10-15T11:57:47.892Z,6.00
2018-10-15T12:00:17.051Z,4.50
2018-10-15T12:02:46.565Z,4.10
2018-10-15T12:05:14.796Z,4.60
2018-10-15T12:07:43.025Z,4.27
2018-10-15T12:10:12.644Z,5.43
2018-10-15T12:12:41.145Z,5.57
2018-10-15T12:15:10.673Z,4.87
2018-10-15T12:17:39.672Z,4.53
2018-10-15T12:20:09.172Z,5.37
2018-10-15T12:22:37.718Z,5.33
2018-10-15T12:25:07.358Z,5.45
2018-10-15T12:27:35.961Z,4.20
2018-10-15T12:30:04.380Z,4.90
2018-10-15T12:32:32.771Z,4.57
2018-10-15T12:35:01.031Z,5.30
2018-10-15T12:37:29.397Z,4.10
2018-10-15T12:39:57.849Z,5.40
2018-10-15T12:42:26.255Z,6.13
2018-10-15T12:44:54.759Z,4.37
2018-10-15T12:47:23.343Z,4.60
2018-10-15T12:49:51.755Z,4.50
2018-10-15T12:52:20.222Z,5.20
2018-10-15T12:54:48.680Z,4.23
2018-10-15T12:57:17.220Z,4.60
2018-10-15T12:59:45.546Z,3.93
2018-10-15T13:02:13.819Z,4.83
2018-10-15T13:04:42.391Z,5.20
2018-10-15T13:07:10.773Z,4.53
2018-10-15T13:09:39.255Z,4.30
2018-10-15T13:12:07.656Z,4.60
2018-10-15T13:14:36.124Z,5.13
2018-10-15T13:17:04.668Z,5.10
2018-10-15T13:19:33.688Z,3.77
2018-10-15T13:22:02.194Z,4.50
2018-10-15T13:24:30.578Z,4.77
2018-10-15T13:26:58.723Z,3.70
2018-10-15T13:29:26.950Z,4.03
2018-10-15T13:31:55.490Z,4.10
2018-10-15T13:34:24.012Z,3.73
2018-10-15T13:36:52.387Z,4.73
2018-10-15T13:39:20.815Z,3.98
2018-10-15T13:41:49.242Z,4.97
2018-10-15T13:44:17.497Z,4.73
2018-10-15T13:46:45.772Z,4.67
2018-10-15T13:49:13.961Z,3.98
2018-10-15T13:51:42.397Z,4.30
2018-10-15T13:54:10.728Z,4.13
2018-10-15T13:56:39.048Z,3.27
2018-10-15T13:59:07.435Z,4.13
2018-10-15T14:01:35.804Z,3.30
2018-10-15T14:04:05.458Z,4.70
2018-10-15T14:06:34.549Z,4.10
2018-10-15T14:09:03.044Z,3.90
2018-10-15T14:11:31.424Z,3.50
2018-10-15T14:13:59.579Z,3.20
2018-10-15T14:16:28.084Z,2.80
2018-10-15T14:18:56.312Z,3.93
2018-10-15T14:21:24.896Z,3.43
2018-10-15T14:23:53.191Z,3.43
2018-10-15T14:26:21.379Z,4.10
2018-10-15T14:28:50.076Z,3.77
2018-10-15T14:31:18.518Z,3.50
2018-10-15T14:33:46.951Z,3.80
2018-10-15T14:36:15.239Z,3.20
2018-10-15T14:38:43.651Z,3.80
2018-10-15T14:41:11.861Z,4.20
2018-10-15T14:43:40.313Z,3.30
2018-10-15T14:46:08.727Z,3.33
2018-10-15T14:48:37.160Z,3.23
2018-10-15T14:51:06.872Z,3.40
2018-10-15T14:53:36.214Z,3.27
2018-10-15T14:56:04.722Z,3.40
2018-10-15T14:58:33.109Z,3.42
2018-10-15T15:01:01.581Z,3.30
2018-10-15T15:03:29.891Z,3.50
2018-10-15T15:05:58.244Z,3.70
2018-10-15T15:08:26.660Z,2.97
2018-10-15T15:11:06.446Z,3.67
2018-10-15T15:13:45.965Z,3.80
2018-10-15T15:16:14.091Z,3.57
2018-10-15T15:18:42.354Z,3.47
2018-10-15T15:21:10.502Z,3.60
2018-10-15T15:23:38.906Z,3.42
2018-10-15T15:26:07.277Z,3.10
2018-10-15T15:28:35.543Z,3.97
2018-10-15T15:31:03.927Z,2.87
2018-10-15T15:33:32.660Z,3.70
2018-10-15T15:36:01.015Z,4.00
2018-10-15T15:38:29.274Z,4.15
2018-10-15T15:40:58.100Z,3.30
2018-10-15T15:43:26.492Z,3.08
2018-10-15T15:45:54.836Z,4.00
2018-10-15T15:48:23.003Z,3.40
2018-10-15T15:50:51.354Z,2.87
2018-10-15T15:53:19.543Z,2.83
2018-10-15T15:55:47.964Z,3.87
2018-10-15T15:58:16.408Z,3.60
2018-10-15T16:00:44.786Z,2.67
2018-10-15T16:03:13.304Z,4.58
2018-10-15T16:05:41.819Z,3.13
2018-10-15T16:08:10.277Z,4.03
2018-10-15T16:10:38.707Z,4.07
2018-10-15T16:13:06.997Z,3.57
2018-10-15T16:15:35.326Z,4.30
2018-10-15T16:18:03.660Z,4.40
2018-10-15T16:20:31.928Z,4.33
2018-10-15T16:23:00.211Z,3.47
2018-10-15T16:25:28.685Z,3.80
2018-10-15T16:27:57.103Z,3.83
2018-10-15T16:30:25.411Z,4.13
2018-10-15T16:32:53.811Z,4.27
2018-10-15T16:35:21.956Z,4.50
2018-10-15T16:37:50.420Z,3.60
2018-10-15T16:40:18.764Z,4.43
2018-10-15T16:42:47.518Z,4.57
2018-10-15T16:45:16.010Z,4.10
2018-10-15T16:47:44.474Z,4.00
2018-10-15T16:50:14.421Z,4.70
2018-10-15T16:52:49.149Z,4.03
2018-10-15T16:55:17.304Z,4.00
2018-10-15T16:57:46.023Z,3.83
2018-10-15T17:00:14.936Z,4.00
2018-10-15T17:02:43.460Z,3.70
2018-10-15T17:05:13.058Z,4.20
2018-10-15T17:07:41.552Z,3.90
2018-10-15T17:10:12.096Z,4.28
2018-10-15T17:12:40.793Z,5.45
2018-10-15T17:15:11.640Z,4.17
2018-10-15T17:17:40.667Z,4.00
2018-10-15T17:20:09.646Z,4.03
2018-10-15T17:22:37.868Z,3.80
2018-10-15T17:25:06.599Z,4.40
2018-10-15T17:27:34.864Z,3.63
2018-10-15T17:30:03.202Z,4.33
2018-10-15T17:32:31.520Z,4.33
2018-10-15T17:34:59.724Z,4.87
2018-10-15T17:37:28.058Z,5.20
2018-10-15T17:39:56.454Z,5.33
2018-10-15T17:42:24.963Z,4.77
2018-10-15T17:44:53.447Z,6.20
2018-10-15T17:47:21.817Z,7.08
2018-10-15T17:49:50.233Z,6.17
2018-10-15T17:52:18.781Z,5.40
2018-10-15T17:54:47.064Z,4.77
2018-10-15T17:57:15.492Z,6.50
2018-10-15T17:59:43.751Z,4.80
2018-10-15T18:02:12.547Z,5.60
2018-10-15T18:04:40.969Z,7.00
2018-10-15T18:07:09.357Z,5.50
2018-10-15T18:09:37.758Z,6.60
2018-10-15T18:12:06.381Z,7.73
2018-10-15T18:14:34.676Z,8.87
2018-10-15T18:17:03.154Z,7.30
2018-10-15T18:19:31.501Z,7.40
2018-10-15T18:21:59.877Z,6.30
2018-10-15T18:24:28.160Z,6.07
2018-10-15T18:26:56.360Z,7.63
2018-10-15T18:29:24.676Z,13.70
2018-10-15T18:31:52.890Z,14.13
2018-10-15T18:34:21.127Z,8.43
2018-10-15T18:36:49.559Z,10.17
2018-10-15T18:39:17.792Z,5.70
2018-10-15T18:41:46.190Z,7.37
2018-10-15T18:44:14.301Z,7.47
2018-10-15T18:46:42.549Z,5.70
2018-10-15T18:49:11.087Z,6.30
2018-10-15T18:51:39.367Z,4.23
2018-10-15T18:54:07.968Z,5.03
2018-10-15T18:56:36.219Z,5.65
2018-10-15T18:59:04.399Z,6.20
2018-10-15T19:01:32.524Z,5.43
2018-10-15T19:04:00.653Z,4.43
2018-10-15T19:06:28.821Z,5.20
2018-10-15T19:08:57.015Z,5.90
2018-10-15T19:11:25.165Z,5.60
2018-10-15T19:13:53.479Z,5.40
2018-10-15T19:16:21.714Z,5.30
2018-10-15T19:18:49.999Z,4.97
2018-10-15T19:21:18.153Z,4.47
2018-10-15T19:23:46.288Z,5.67
2018-10-15T19:26:14.507Z,5.83
2018-10-15T19:28:42.566Z,4.95
2018-10-15T19:31:10.791Z,6.20
2018-10-15T19:33:39.067Z,5.30
2018-10-15T19:36:07.594Z,5.10
2018-10-15T19:38:35.810Z,5.97
2018-10-15T19:41:04.270Z,6.35
2018-10-15T19:43:32.576Z,5.10
2018-10-15T19:46:00.751Z,5.73
2018-10-15T19:48:28.894Z,6.50
2018-10-15T19:50:57.139Z,5.77
2018-10-15T19:53:25.411Z,6.20
2018-10-15T19:55:53.546Z,6.15
2018-10-15T19:58:21.969Z,6.53
2018-10-15T20:00:50.131Z,5.90
2018-10-15T20:03:18.440Z,6.70
2018-10-15T20:05:47.368Z,6.30
2018-10-15T20:08:15.528Z,5.53
2018-10-15T20:10:43.828Z,6.70
2018-10-15T20:13:12.108Z,7.47
2018-10-15T20:15:40.362Z,6.83
2018-10-15T20:18:08.656Z,8.40
2018-10-15T20:20:36.767Z,6.83
2018-10-15T20:23:05.248Z,6.50
2018-10-15T20:25:33.529Z,7.53
2018-10-15T20:28:01.758Z,6.57
2018-10-15T20:30:29.914Z,6.63
2018-10-15T20:32:58.153Z,6.60
2018-10-15T20:35:26.446Z,6.60
2018-10-15T20:37:54.771Z,7.03
2018-10-15T20:40:23.001Z,8.00
2018-10-15T20:42:51.209Z,6.63
2018-10-15T20:45:19.398Z,6.07
2018-10-15T20:47:47.715Z,7.67
2018-10-15T20:50:15.991Z,6.60
2018-10-15T20:52:44.247Z,7.85
2018-10-15T20:55:12.412Z,8.25
2018-10-15T20:57:41.302Z,8.13
2018-10-15T21:00:10.803Z,7.60
2018-10-15T21:02:39.496Z,6.87
2018-10-15T21:05:07.892Z,9.25
2018-10-15T21:07:36.140Z,6.70
2018-10-15T21:10:04.375Z,7.20
2018-10-15T21:12:32.607Z,7.27
2018-10-15T21:15:00.728Z,7.37
2018-10-15T21:17:28.981Z,7.27
2018-10-15T21:19:57.278Z,8.17
2018-10-15T21:22:25.561Z,6.92
2018-10-15T21:24:53.759Z,8.30
2018-10-15T21:27:21.904Z,6.93
2018-10-15T21:29:51.029Z,6.65
2018-10-15T21:32:19.255Z,7.40
2018-10-15T21:34:47.599Z,6.80
2018-10-15T21:37:15.779Z,8.77
2018-10-15T21:39:44.076Z,7.50
2018-10-15T21:42:12.352Z,8.10
2018-10-15T21:44:47.384Z,8.23
2018-10-15T21:47:15.704Z,8.73
2018-10-15T21:49:44.107Z,6.87
2018-10-15T21:52:12.482Z,8.40
2018-10-15T21:54:40.889Z,7.57
2018-10-15T21:57:09.172Z,8.58
2018-10-15T22:02:37.808Z,6.78
2018-10-15T22:05:06.720Z,7.77
2018-10-15T22:07:34.820Z,7.03
2018-10-15T22:10:08.460Z,6.83
2018-10-15T22:12:36.994Z,7.10
2018-10-15T22:15:06.229Z,8.10
2018-10-15T22:17:34.392Z,7.67
2018-10-15T22:20:02.700Z,7.63
2018-10-15T22:22:30.979Z,8.07
2018-10-15T22:24:59.308Z,8.90
2018-10-15T22:27:27.548Z,7.67
2018-10-15T22:29:55.760Z,9.53
2018-10-15T22:32:24.377Z,6.97
2018-10-15T22:34:52.540Z,7.17
2018-10-15T22:37:20.695Z,8.50
2018-10-15T22:39:48.896Z,7.70
2018-10-15T22:42:17.058Z,6.83
2018-10-15T22:44:45.244Z,8.40
2018-10-15T22:47:13.490Z,8.13
2018-10-15T22:49:41.635Z,7.80
2018-10-15T22:52:09.991Z,9.50
2018-10-15T22:54:38.478Z,8.75
2018-10-15T22:57:06.744Z,7.90
2018-10-15T22:59:35.049Z,8.03
2018-10-15T23:02:03.404Z,8.57
2018-10-15T23:04:31.559Z,8.73
2018-10-15T23:06:59.687Z,8.25
2018-10-15T23:09:28.501Z,7.90
2018-10-15T23:11:56.632Z,8.70
2018-10-15T23:14:25.245Z,6.97
2018-10-15T23:16:53.479Z,7.87
2018-10-15T23:19:21.653Z,7.50
2018-10-15T23:21:49.859Z,8.60
2018-10-15T23:24:18.055Z,8.60
2018-10-15T23:26:46.261Z,8.43
2018-10-15T23:29:14.430Z,7.20
2018-10-15T23:31:42.785Z,7.60
2018-10-15T23:34:10.928Z,7.67
2018-10-15T23:36:39.078Z,8.00
2018-10-15T23:39:09.496Z,7.47
2018-10-15T23:41:37.646Z,7.55
2018-10-15T23:44:05.879Z,6.92
2018-10-15T23:46:34.112Z,8.10
2018-10-15T23:49:02.286Z,7.83
2018-10-15T23:51:30.452Z,7.33
2018-10-15T23:53:58.608Z,7.20
2018-10-15T23:56:26.936Z,8.70
2018-10-15T23:58:55.385Z,8.03
